Decoded Metar for CYKJ (KEY LAKE in SK, CANADA) (IATA:YKJ) | Meteo·Mobile Aviation Weather
aviador You're here:

CYKJ Decoded Metar

KEY LAKE in SK, CANADA
Report Time2018-12-11 09:00:00
UTC Time2018-12-11 09:55:19
Flight Rules vfr VFR
Wind230° at 05 kt
W.Decomp.*RWY 21: 4.9 kt HW 0.9 kt RCW
W.Rank230° ranks 16
Current wind is below 230° avg. (6.2)
Visibility9999 m
Phenomena:N/A
Clouds:Broken 090 Hf
Overcast 120 Hf
Expected CloudBase > 800 ft AGL from Temp-Dew spread
Ceiling9,000 ft
Temp-7°C (ISA -19)
Dew Point-9°C (86% RH)
AAT-11.8°C
QNH1002 hPa
Density Alt-213 ft
Elevation1,670 ft
Report Wrong Elevation
Raw Report
CYKJ 110900Z AUTO 23005KT 9SM BKN090 OVC120 M07/M09 A2958 RMK
SLP054=

Extra information for CYKJ:More info

Metar Taf Metar & Taf Last 4 Metars F.Rules Stats Wind Profile Meteogram Temp Stats Airport Information Weather charts Add Link Nearby VenuesMetar ALERT Operation Metar Decoded Social comments